Airport View

Enter AWOS ICAO identifier for current METAR.

ex. KFNL

KAZO 040353Z AUTO 01008KT 10SM OVC011 19/15 A3000 RMK AO2 SLP154 T01890150

4 Aug 2020 04:43

Frequency: 127.25

Phone: 269-459-3391

Other Area AWOS: KBTL - KHAI - KIRS - KRMY

TAF AMD KAZO 040228Z 0402/0424 36009KT P6SM VCSH BKN017 BKN035 OVC070 FM040500 01006KT P6SM BKN018 FM040800 02008KT P6SM BKN020 FM041400 36010KT P6SM BKN040